createdAt,value
2018-12-19T00:00:40.345Z,3.30
2018-12-19T00:03:08.857Z,3.30
2018-12-19T00:05:37.339Z,3.30
2018-12-19T00:08:06.227Z,3.30
2018-12-19T00:10:35.114Z,3.40
2018-12-19T00:13:04.008Z,3.40
2018-12-19T00:15:32.509Z,3.30
2018-12-19T00:18:01.383Z,3.30
2018-12-19T00:20:30.262Z,3.30
2018-12-19T00:22:58.760Z,3.30
2018-12-19T00:25:27.254Z,3.30
2018-12-19T00:27:56.039Z,3.30
2018-12-19T00:30:24.921Z,3.30
2018-12-19T00:32:53.416Z,3.30
2018-12-19T00:35:21.915Z,3.30
2018-12-19T00:37:50.832Z,3.30
2018-12-19T00:40:19.736Z,3.40
2018-12-19T00:42:48.947Z,3.30
2018-12-19T00:45:17.437Z,3.40
2018-12-19T00:47:46.744Z,3.40
2018-12-19T00:50:15.639Z,3.30
2018-12-19T00:52:44.517Z,3.30
2018-12-19T00:55:13.795Z,3.30
2018-12-19T00:57:42.678Z,3.30
2018-12-19T01:00:12.221Z,3.20
2018-12-19T01:02:40.706Z,3.20
2018-12-19T01:05:09.604Z,3.20
2018-12-19T01:07:38.858Z,3.20
2018-12-19T01:10:08.133Z,3.20
2018-12-19T01:12:36.625Z,3.20
2018-12-19T01:15:06.548Z,3.30
2018-12-19T01:17:35.433Z,3.20
2018-12-19T01:20:04.788Z,3.20
2018-12-19T01:22:33.271Z,3.20
2018-12-19T01:25:02.560Z,3.20
2018-12-19T01:27:31.063Z,3.20
2018-12-19T01:29:59.551Z,3.30
2018-12-19T01:32:28.065Z,3.20
2018-12-19T01:34:56.556Z,3.20
2018-12-19T01:37:25.432Z,3.20
2018-12-19T01:39:54.311Z,3.20
2018-12-19T01:42:22.800Z,3.10
2018-12-19T01:44:51.303Z,3.20
2018-12-19T01:47:19.786Z,3.20
2018-12-19T01:49:48.615Z,3.10
2018-12-19T01:52:17.798Z,3.10
2018-12-19T01:54:46.623Z,3.10
2018-12-19T01:57:15.514Z,3.00
2018-12-19T01:59:44.022Z,3.10
2018-12-19T02:02:12.911Z,3.10
2018-12-19T02:04:41.400Z,3.10
2018-12-19T02:07:10.291Z,3.10
2018-12-19T02:09:39.171Z,3.10
2018-12-19T02:12:08.065Z,3.10
2018-12-19T02:14:36.979Z,3.10
2018-12-19T02:17:05.459Z,3.20
2018-12-19T02:19:34.451Z,3.10
2018-12-19T02:22:03.747Z,3.00
2018-12-19T02:24:32.651Z,3.10
2018-12-19T02:27:01.544Z,3.10
2018-12-19T02:29:30.055Z,3.10
2018-12-19T02:31:58.556Z,3.10
2018-12-19T02:34:27.403Z,3.00
2018-12-19T02:36:55.899Z,3.00
2018-12-19T02:39:24.731Z,3.00
2018-12-19T02:41:53.263Z,3.00
2018-12-19T02:44:22.155Z,3.00
2018-12-19T02:46:50.661Z,3.00
2018-12-19T02:49:19.170Z,2.90
2018-12-19T02:51:48.070Z,3.00
2018-12-19T02:54:16.580Z,3.00
2018-12-19T02:56:45.487Z,3.00
2018-12-19T02:59:13.982Z,2.90
2018-12-19T03:01:42.874Z,2.90
2018-12-19T03:04:11.756Z,2.90
2018-12-19T03:06:40.590Z,3.00
2018-12-19T03:09:09.112Z,2.90
2018-12-19T03:11:37.604Z,2.90
2018-12-19T03:14:06.427Z,2.90
2018-12-19T03:16:35.318Z,2.90
2018-12-19T03:19:04.622Z,2.90
2018-12-19T03:21:33.116Z,2.90
2018-12-19T03:24:02.015Z,2.90
2018-12-19T03:26:30.908Z,2.90
2018-12-19T03:28:59.413Z,2.90
2018-12-19T03:31:27.925Z,2.80
2018-12-19T03:33:56.690Z,2.90
2018-12-19T03:36:25.572Z,2.90
2018-12-19T03:38:54.469Z,2.90
2018-12-19T03:41:23.776Z,2.90
2018-12-19T03:43:52.282Z,2.90
2018-12-19T03:46:21.171Z,2.90
2018-12-19T03:48:55.176Z,2.90
2018-12-19T03:51:24.104Z,2.90
2018-12-19T03:53:53.537Z,2.80
2018-12-19T03:56:22.031Z,2.90
2018-12-19T03:58:50.551Z,2.90
2018-12-19T04:01:19.046Z,2.80
2018-12-19T04:03:47.566Z,2.80
2018-12-19T04:06:17.264Z,2.80
2018-12-19T04:08:45.767Z,2.80
2018-12-19T04:11:14.656Z,2.80
2018-12-19T04:13:43.548Z,2.90
2018-12-19T04:16:12.424Z,2.90
2018-12-19T04:18:41.072Z,2.90
2018-12-19T04:21:09.824Z,2.90
2018-12-19T04:23:38.729Z,2.90
2018-12-19T04:26:07.242Z,2.90
2018-12-19T04:28:35.738Z,2.90
2018-12-19T04:31:05.026Z,2.90
2018-12-19T04:33:33.929Z,2.80
2018-12-19T04:36:02.429Z,2.80
2018-12-19T04:38:31.613Z,2.80
2018-12-19T04:41:00.131Z,2.80
2018-12-19T04:43:28.638Z,2.80
2018-12-19T04:45:57.927Z,2.90
2018-12-19T04:48:26.816Z,2.90
2018-12-19T04:50:55.710Z,2.80
2018-12-19T04:53:24.624Z,2.90
2018-12-19T04:55:53.908Z,2.90
2018-12-19T04:58:22.422Z,2.90
2018-12-19T05:00:51.323Z,2.90
2018-12-19T05:03:19.813Z,2.90
2018-12-19T05:05:49.107Z,3.00
2018-12-19T05:08:17.607Z,3.00
2018-12-19T05:10:46.490Z,3.00
2018-12-19T05:13:15.008Z,3.00
2018-12-19T05:15:43.516Z,3.00
2018-12-19T05:18:12.438Z,3.00
2018-12-19T05:20:40.968Z,3.00
2018-12-19T05:23:09.868Z,3.00
2018-12-19T05:25:38.359Z,3.00
2018-12-19T05:28:07.203Z,3.00
2018-12-19T05:30:36.219Z,3.00
2018-12-19T05:33:04.725Z,2.90
2018-12-19T05:35:33.256Z,3.00
2018-12-19T05:38:01.763Z,3.00
2018-12-19T05:40:31.071Z,3.00
2018-12-19T05:42:59.612Z,3.10
2018-12-19T05:45:28.517Z,3.10
2018-12-19T05:47:57.067Z,3.10
2018-12-19T05:50:28.152Z,3.10
2018-12-19T05:52:56.742Z,3.10
2018-12-19T05:55:25.239Z,3.10
2018-12-19T05:57:54.627Z,3.10
2018-12-19T06:00:31.756Z,3.10
2018-12-19T06:03:01.007Z,3.10
2018-12-19T06:05:34.991Z,3.20
2018-12-19T06:08:05.259Z,3.10
2018-12-19T06:10:38.637Z,3.00
2018-12-19T06:16:03.933Z,3.00
2018-12-19T06:18:33.754Z,3.00
2018-12-19T06:21:03.304Z,3.10
2018-12-19T06:23:32.091Z,3.00
2018-12-19T06:26:00.995Z,3.00
2018-12-19T06:28:29.780Z,3.10
2018-12-19T06:30:58.805Z,3.10
2018-12-19T06:33:27.323Z,3.00
2018-12-19T06:35:56.208Z,3.00
2018-12-19T06:38:24.735Z,3.00
2018-12-19T06:40:53.214Z,3.00
2018-12-19T06:43:21.746Z,3.00
2018-12-19T06:45:50.247Z,3.00
2018-12-19T06:48:18.763Z,2.90
2018-12-19T06:50:47.670Z,3.00
2018-12-19T06:53:17.519Z,3.00
2018-12-19T06:55:46.045Z,3.00
2018-12-19T06:58:14.945Z,3.00
2018-12-19T07:00:43.659Z,2.90
2018-12-19T07:03:12.608Z,3.00
2018-12-19T07:05:41.114Z,3.00
2018-12-19T07:08:09.610Z,3.00
2018-12-19T07:10:39.246Z,3.00
2018-12-19T07:13:08.191Z,3.00
2018-12-19T07:15:37.099Z,3.00
2018-12-19T07:18:05.999Z,3.00
2018-12-19T07:20:34.849Z,3.00
2018-12-19T07:23:03.584Z,3.00
2018-12-19T07:25:32.084Z,3.00
2018-12-19T07:28:00.605Z,3.00
2018-12-19T07:30:29.496Z,3.00
2018-12-19T07:32:58.415Z,3.00
2018-12-19T07:35:26.932Z,3.00
2018-12-19T07:37:55.457Z,3.10
2018-12-19T07:40:23.965Z,3.10
2018-12-19T07:42:52.852Z,3.00
2018-12-19T07:45:21.735Z,3.10
2018-12-19T07:47:50.262Z,3.10
2018-12-19T07:50:18.774Z,3.10
2018-12-19T07:52:48.487Z,3.00
2018-12-19T07:55:17.368Z,3.10
2018-12-19T07:57:45.868Z,3.10
2018-12-19T08:00:15.141Z,3.10
2018-12-19T08:02:44.034Z,3.10
2018-12-19T08:05:12.519Z,3.10
2018-12-19T08:07:41.033Z,3.10
2018-12-19T08:10:09.914Z,3.10
2018-12-19T08:12:38.427Z,3.20
2018-12-19T08:15:07.708Z,3.20
2018-12-19T08:17:36.209Z,3.20
2018-12-19T08:20:05.757Z,3.20
2018-12-19T08:22:34.659Z,3.20
2018-12-19T08:25:03.550Z,3.20
2018-12-19T08:27:32.441Z,3.20
2018-12-19T08:30:01.319Z,3.30
2018-12-19T08:32:30.260Z,3.30
2018-12-19T08:34:58.768Z,3.30
2018-12-19T08:37:27.640Z,3.30
2018-12-19T08:39:56.527Z,3.30
2018-12-19T08:42:25.021Z,3.40
2018-12-19T08:44:53.927Z,3.50
2018-12-19T08:47:23.250Z,3.50
2018-12-19T08:49:51.759Z,3.50
2018-12-19T08:52:20.264Z,3.40
2018-12-19T08:54:48.755Z,3.50
2018-12-19T08:57:17.644Z,3.50
2018-12-19T08:59:46.927Z,3.50
2018-12-19T09:02:15.449Z,3.60
2018-12-19T09:04:43.987Z,3.60
2018-12-19T09:07:12.472Z,3.60
2018-12-19T09:09:40.961Z,3.70
2018-12-19T09:12:09.836Z,3.70
2018-12-19T09:14:38.351Z,3.70
2018-12-19T09:17:07.697Z,3.70
2018-12-19T09:19:37.341Z,3.80
2018-12-19T09:22:05.876Z,3.70
2018-12-19T09:24:34.464Z,3.70
2018-12-19T09:27:04.084Z,3.80
2018-12-19T09:29:32.839Z,3.90
2018-12-19T09:32:01.724Z,3.90
2018-12-19T09:34:30.744Z,3.90
2018-12-19T09:36:59.275Z,3.90
2018-12-19T09:39:28.161Z,3.90
2018-12-19T09:41:57.436Z,4.00
2018-12-19T09:44:25.925Z,3.90
2018-12-19T09:46:54.399Z,3.90
2018-12-19T09:49:23.270Z,3.90
2018-12-19T09:51:51.773Z,3.80
2018-12-19T09:54:20.684Z,3.80
2018-12-19T09:56:49.575Z,3.90
2018-12-19T09:59:18.086Z,3.90
2018-12-19T10:01:46.972Z,3.80
2018-12-19T10:04:15.473Z,3.90
2018-12-19T10:06:44.387Z,4.00
2018-12-19T10:09:15.037Z,3.90
2018-12-19T10:11:43.921Z,3.90
2018-12-19T10:14:12.430Z,3.90
2018-12-19T10:16:41.913Z,4.00
2018-12-19T10:19:10.903Z,4.00
2018-12-19T10:21:39.795Z,4.00
2018-12-19T10:24:08.756Z,4.00
2018-12-19T10:26:37.980Z,4.00
2018-12-19T10:29:07.554Z,4.00
2018-12-19T10:31:36.044Z,4.10
2018-12-19T10:34:05.695Z,4.10
2018-12-19T10:36:38.383Z,4.10
2018-12-19T10:39:13.191Z,4.10
2018-12-19T10:41:42.402Z,4.20
2018-12-19T10:44:11.815Z,4.20
2018-12-19T10:46:41.100Z,4.20
2018-12-19T10:49:10.001Z,4.20
2018-12-19T10:51:38.905Z,4.20
2018-12-19T10:54:08.311Z,4.20
2018-12-19T10:56:37.246Z,4.20
2018-12-19T10:59:05.735Z,4.20
2018-12-19T11:01:34.255Z,4.20
2018-12-19T11:04:03.522Z,4.30
2018-12-19T11:06:32.003Z,4.20
2018-12-19T11:09:00.949Z,4.20
2018-12-19T11:11:32.453Z,4.30
2018-12-19T11:14:00.340Z,4.30
2018-12-19T11:16:29.855Z,4.20
2018-12-19T11:18:58.340Z,4.10
2018-12-19T11:21:26.881Z,4.10
2018-12-19T11:23:56.061Z,4.10
2018-12-19T11:26:25.163Z,4.20
2018-12-19T11:28:53.660Z,4.10
2018-12-19T11:31:22.562Z,4.10
2018-12-19T11:33:51.085Z,4.10
2018-12-19T11:36:20.354Z,4.00
2018-12-19T11:38:48.868Z,4.10
2018-12-19T11:41:18.222Z,4.00
2018-12-19T11:43:46.706Z,4.00
2018-12-19T11:46:15.587Z,4.10
2018-12-19T11:48:44.078Z,4.10
2018-12-19T11:51:12.599Z,4.10
2018-12-19T11:53:41.087Z,4.20
2018-12-19T11:56:09.571Z,4.10
2018-12-19T11:58:39.419Z,4.00
2018-12-19T12:01:08.587Z,4.00
2018-12-19T12:03:37.471Z,4.00
2018-12-19T12:06:05.984Z,4.10
2018-12-19T12:08:35.268Z,4.00
2018-12-19T12:11:04.163Z,4.00
2018-12-19T12:13:32.653Z,4.00
2018-12-19T12:16:01.582Z,4.00
2018-12-19T12:18:30.477Z,3.90
2018-12-19T12:20:59.393Z,3.90
2018-12-19T12:23:28.282Z,3.90
2018-12-19T12:25:57.487Z,3.90
2018-12-19T12:28:26.548Z,4.00
2018-12-19T12:30:55.422Z,3.90
2018-12-19T12:33:23.948Z,4.00
2018-12-19T12:35:53.748Z,3.90
2018-12-19T12:38:22.936Z,3.90
2018-12-19T12:40:51.818Z,3.90
2018-12-19T12:43:20.703Z,3.90
2018-12-19T12:45:49.196Z,3.90
2018-12-19T12:48:17.671Z,3.90
2018-12-19T12:50:46.168Z,3.90
2018-12-19T12:53:16.123Z,3.90
2018-12-19T12:55:44.915Z,3.90
2018-12-19T12:58:13.795Z,3.90
2018-12-19T13:00:42.258Z,3.90
2018-12-19T13:03:11.165Z,3.90
2018-12-19T13:05:40.385Z,3.80
2018-12-19T13:08:09.515Z,3.80
2018-12-19T13:10:38.506Z,3.80
2018-12-19T13:13:07.374Z,3.90
2018-12-19T13:15:43.771Z,3.80
2018-12-19T13:18:12.250Z,3.80
2018-12-19T13:20:40.856Z,3.80
2018-12-19T13:23:09.373Z,3.90
2018-12-19T13:25:38.298Z,3.90
2018-12-19T13:28:06.862Z,3.90
2018-12-19T13:30:36.152Z,3.80
2018-12-19T13:33:05.051Z,3.80
2018-12-19T13:35:33.551Z,3.90
2018-12-19T13:38:02.034Z,3.90
2018-12-19T13:40:30.535Z,3.80
2018-12-19T13:42:59.415Z,3.90
2018-12-19T13:45:28.576Z,3.80
2018-12-19T13:47:57.860Z,3.80
2018-12-19T13:50:26.769Z,3.80
2018-12-19T13:52:55.647Z,3.80
2018-12-19T13:55:24.468Z,3.80
2018-12-19T13:57:53.356Z,3.90
2018-12-19T14:00:22.399Z,3.90
2018-12-19T14:02:52.200Z,3.90
2018-12-19T14:05:21.479Z,3.90
2018-12-19T14:07:49.972Z,3.90
2018-12-19T14:10:18.483Z,3.80
2018-12-19T14:12:47.376Z,3.80
2018-12-19T14:15:16.222Z,3.80
2018-12-19T14:17:44.707Z,3.80
2018-12-19T14:20:13.194Z,3.80
2018-12-19T14:22:41.689Z,3.70
2018-12-19T14:25:10.990Z,3.80
2018-12-19T14:27:39.545Z,3.80
2018-12-19T14:30:09.215Z,3.70
2018-12-19T14:32:38.486Z,3.70
2018-12-19T14:35:07.753Z,3.70
2018-12-19T14:37:38.564Z,3.80
2018-12-19T14:40:07.890Z,3.70
2018-12-19T14:42:36.395Z,3.80
2018-12-19T14:45:07.007Z,3.70
2018-12-19T14:47:35.524Z,3.70
2018-12-19T14:50:05.478Z,3.80
2018-12-19T14:52:35.228Z,3.70
2018-12-19T14:55:04.587Z,3.70
2018-12-19T14:57:33.107Z,3.70
2018-12-19T15:00:01.996Z,3.60
2018-12-19T15:02:30.991Z,3.60
2018-12-19T15:04:59.960Z,3.60
2018-12-19T15:07:28.851Z,3.60
2018-12-19T15:09:57.396Z,3.60
2018-12-19T15:12:26.283Z,3.60
2018-12-19T15:14:54.763Z,3.50
2018-12-19T15:17:24.056Z,3.50
2018-12-19T15:19:52.562Z,3.50
2018-12-19T15:22:21.804Z,3.50
2018-12-19T15:24:50.387Z,3.50
2018-12-19T15:27:19.259Z,3.50
2018-12-19T15:29:48.145Z,3.50
2018-12-19T15:32:16.643Z,3.50
2018-12-19T15:34:45.520Z,3.50
2018-12-19T15:37:14.425Z,3.50
2018-12-19T15:39:42.928Z,3.50
2018-12-19T15:42:11.807Z,3.40
2018-12-19T15:44:40.505Z,3.40
2018-12-19T15:47:09.375Z,3.40
2018-12-19T15:49:37.876Z,3.40
2018-12-19T15:52:07.087Z,3.40
2018-12-19T15:54:35.606Z,3.40
2018-12-19T15:57:05.334Z,3.40
2018-12-19T15:59:34.571Z,3.40
2018-12-19T16:02:03.464Z,3.40
2018-12-19T16:04:31.956Z,3.40
2018-12-19T16:07:00.824Z,3.30
2018-12-19T16:09:29.304Z,3.30
2018-12-19T16:11:58.191Z,3.30
2018-12-19T16:14:27.447Z,3.30
2018-12-19T16:16:57.576Z,3.30
2018-12-19T16:19:26.529Z,3.40
2018-12-19T16:21:55.071Z,3.30
2018-12-19T16:24:23.943Z,3.30
2018-12-19T16:26:52.438Z,3.40
2018-12-19T16:29:21.351Z,3.30
2018-12-19T16:31:50.249Z,3.40
2018-12-19T16:34:18.748Z,3.40
2018-12-19T16:36:47.643Z,3.40
2018-12-19T16:39:16.196Z,3.40
2018-12-19T16:41:44.718Z,3.40
2018-12-19T16:44:13.892Z,3.40
2018-12-19T16:46:42.423Z,3.40
2018-12-19T16:49:11.336Z,3.40
2018-12-19T16:51:40.679Z,3.40
2018-12-19T16:54:09.196Z,3.50
2018-12-19T16:56:38.458Z,3.50
2018-12-19T16:59:07.607Z,3.50
2018-12-19T17:01:36.522Z,3.50
2018-12-19T17:04:05.418Z,3.50
2018-12-19T17:06:34.015Z,3.50
2018-12-19T17:09:02.789Z,3.50
2018-12-19T17:11:31.296Z,3.50
2018-12-19T17:14:00.180Z,3.50
2018-12-19T17:16:29.026Z,3.40
2018-12-19T17:18:58.355Z,3.40
2018-12-19T17:21:26.877Z,3.40
2018-12-19T17:23:55.365Z,3.50
2018-12-19T17:26:24.243Z,3.40
2018-12-19T17:28:52.757Z,3.40
2018-12-19T17:31:21.247Z,3.40
2018-12-19T17:33:50.137Z,3.40
2018-12-19T17:36:19.397Z,3.30
2018-12-19T17:38:48.286Z,3.30
2018-12-19T17:41:17.159Z,3.30
2018-12-19T17:43:45.659Z,3.30
2018-12-19T17:46:14.939Z,3.30
2018-12-19T17:48:44.227Z,3.30
2018-12-19T17:51:12.747Z,3.30
2018-12-19T17:53:42.316Z,3.30
2018-12-19T17:56:11.222Z,3.30
2018-12-19T17:58:40.203Z,3.20
2018-12-19T18:01:09.777Z,3.30
2018-12-19T18:03:39.051Z,3.30
2018-12-19T18:06:07.943Z,3.30
2018-12-19T18:08:36.463Z,3.30
2018-12-19T18:11:05.843Z,3.20
2018-12-19T18:13:34.554Z,3.20
2018-12-19T18:16:03.844Z,3.20
2018-12-19T18:18:32.725Z,3.20
2018-12-19T18:21:01.238Z,3.20
2018-12-19T18:23:29.716Z,3.10
2018-12-19T18:25:58.220Z,3.10
2018-12-19T18:28:30.223Z,3.20
2018-12-19T18:30:58.680Z,3.10
2018-12-19T18:33:27.186Z,3.10
2018-12-19T18:35:56.466Z,3.10
2018-12-19T18:38:24.938Z,3.10
2018-12-19T18:40:53.815Z,3.10
2018-12-19T18:43:23.092Z,3.10
2018-12-19T18:45:53.422Z,3.10
2018-12-19T18:48:22.602Z,3.20
2018-12-19T18:50:51.085Z,3.10
2018-12-19T18:53:19.967Z,3.20
2018-12-19T18:55:48.564Z,3.20
2018-12-19T18:58:17.050Z,3.10
2018-12-19T19:00:48.062Z,3.10
2018-12-19T19:03:17.647Z,3.10
2018-12-19T19:05:46.406Z,3.20
2018-12-19T19:08:15.734Z,3.20
2018-12-19T19:10:44.261Z,3.20
2018-12-19T19:13:19.508Z,3.20
2018-12-19T19:15:43.794Z,3.10
2018-12-19T19:18:12.670Z,3.20
2018-12-19T19:20:41.964Z,3.20
2018-12-19T19:23:11.199Z,3.20
2018-12-19T19:25:39.699Z,3.20
2018-12-19T19:28:08.203Z,3.20
2018-12-19T19:30:37.079Z,3.20
2018-12-19T19:33:05.999Z,3.20
2018-12-19T19:35:34.487Z,3.20
2018-12-19T19:38:03.011Z,3.20
2018-12-19T19:40:32.917Z,3.30
2018-12-19T19:43:01.762Z,3.20
2018-12-19T19:45:30.276Z,3.20
2018-12-19T19:47:59.172Z,3.30
2018-12-19T19:50:29.088Z,3.20
2018-12-19T19:52:58.695Z,3.20
2018-12-19T19:55:27.859Z,3.20
2018-12-19T19:57:57.251Z,3.20
2018-12-19T20:00:28.967Z,3.20
2018-12-19T20:02:57.600Z,3.20
2018-12-19T20:05:26.985Z,3.20
2018-12-19T20:07:55.984Z,3.10
2018-12-19T20:10:24.903Z,3.10
2018-12-19T20:12:54.156Z,3.20
2018-12-19T20:15:22.679Z,3.10
2018-12-19T20:17:52.035Z,3.10
2018-12-19T20:20:20.582Z,3.10
2018-12-19T20:22:49.108Z,3.10
2018-12-19T20:25:18.503Z,3.10
2018-12-19T20:27:48.974Z,3.20
2018-12-19T20:30:18.299Z,3.10
2018-12-19T20:32:46.842Z,3.10
2018-12-19T20:35:15.976Z,3.10
2018-12-19T20:37:44.920Z,3.10
2018-12-19T20:40:14.532Z,3.10
2018-12-19T20:42:43.036Z,3.10
2018-12-19T20:45:11.590Z,3.00
2018-12-19T20:47:40.516Z,3.10
2018-12-19T20:50:10.263Z,3.10
2018-12-19T20:52:40.319Z,3.10
2018-12-19T20:55:09.723Z,3.10
2018-12-19T20:57:38.678Z,3.10
2018-12-19T21:00:09.181Z,3.10
2018-12-19T21:02:38.166Z,3.10
2018-12-19T21:05:08.299Z,3.20
2018-12-19T21:07:37.296Z,3.20
2018-12-19T21:10:10.064Z,3.20
2018-12-19T21:12:39.705Z,3.20
2018-12-19T21:15:09.300Z,3.20
2018-12-19T21:17:43.362Z,3.10
2018-12-19T21:20:12.107Z,3.20
2018-12-19T21:22:40.689Z,3.20
2018-12-19T21:25:10.300Z,3.20
2018-12-19T21:27:38.858Z,3.20
2018-12-19T21:30:10.728Z,3.20
2018-12-19T21:32:40.324Z,3.20
2018-12-19T21:35:11.305Z,3.20
2018-12-19T21:37:40.278Z,3.20
2018-12-19T21:40:11.295Z,3.20
2018-12-19T21:42:41.422Z,3.20
2018-12-19T21:45:11.359Z,3.20
2018-12-19T21:47:39.900Z,3.20
2018-12-19T21:50:09.413Z,3.10
2018-12-19T21:52:38.354Z,3.10
2018-12-19T21:55:07.565Z,3.10
2018-12-19T21:57:36.713Z,3.20
2018-12-19T22:00:09.526Z,3.20
2018-12-19T22:02:38.428Z,3.20
2018-12-19T22:05:07.749Z,3.20
2018-12-19T22:07:37.417Z,3.20
2018-12-19T22:10:06.710Z,3.20
2018-12-19T22:12:35.588Z,3.20
2018-12-19T22:15:05.635Z,3.10
2018-12-19T22:17:39.892Z,3.10
2018-12-19T22:20:10.012Z,3.10
2018-12-19T22:22:39.509Z,3.20
2018-12-19T22:25:08.785Z,3.10
2018-12-19T22:27:38.292Z,3.10
2018-12-19T22:30:07.693Z,3.10
2018-12-19T22:32:36.640Z,3.20
2018-12-19T22:35:06.209Z,3.20
2018-12-19T22:37:35.038Z,3.20
2018-12-19T22:40:04.875Z,3.10
2018-12-19T22:42:33.387Z,3.20
2018-12-19T22:45:03.143Z,3.10
2018-12-19T22:47:32.104Z,3.10
2018-12-19T22:50:01.280Z,3.10
2018-12-19T22:52:30.421Z,3.10
2018-12-19T22:54:59.866Z,3.10
2018-12-19T22:57:28.592Z,3.10
2018-12-19T22:59:57.799Z,3.10
2018-12-19T23:02:32.449Z,3.10
2018-12-19T23:05:00.952Z,3.10
2018-12-19T23:07:29.461Z,3.10
2018-12-19T23:09:58.737Z,3.10
2018-12-19T23:12:27.924Z,3.10
2018-12-19T23:14:57.035Z,3.10
2018-12-19T23:17:31.578Z,3.20
2018-12-19T23:20:01.180Z,3.10
2018-12-19T23:22:30.712Z,3.10
2018-12-19T23:24:59.887Z,3.20
2018-12-19T23:27:29.084Z,3.10
2018-12-19T23:29:58.217Z,3.10
2018-12-19T23:32:28.336Z,3.10
2018-12-19T23:34:57.969Z,3.00
2018-12-19T23:37:27.160Z,3.00
2018-12-19T23:39:56.883Z,3.00
2018-12-19T23:42:26.288Z,3.00
2018-12-19T23:44:54.810Z,3.00
2018-12-19T23:47:23.562Z,3.00
2018-12-19T23:49:52.466Z,3.00
2018-12-19T23:52:21.631Z,3.00
2018-12-19T23:54:50.235Z,2.90
2018-12-19T23:57:19.344Z,2.90
2018-12-19T23:59:48.073Z,2.90
